Time;durP1;ratioP1;P1;durP2;ratioP2;P2;SDS_P1;SDS_P2;PMS_P1;PMS_P2;Temp;Humidity;BMP_temperature;BMP_pressure;BME280_temperature;BME280_humidity;BME280_pressure;Samples;Min_cycle;Max_cycle;Signal;HPM_P1;HPM_P2
2023/10/05 00:01:29;;;;;;;11.25;2.67;;;14.90;99.90;;;;;;5007432;28;20508;-76
2023/10/05 00:03:55;;;;;;;12.25;3.17;;;15.00;99.90;;;;;;5011243;28;20044;-76
2023/10/05 00:06:24;;;;;;;21.05;3.25;;;15.00;99.90;;;;;;5029713;28;20041;-76
2023/10/05 00:08:53;;;;;;;14.15;3.47;;;15.00;99.90;;;;;;5035657;28;20288;-77
2023/10/05 00:11:24;;;;;;;12.65;3.10;;;15.00;99.90;;;;;;5022706;28;20350;-77
2023/10/05 00:13:57;;;;;;;9.73;3.25;;;15.00;99.90;;;;;;5009591;28;20046;-77
2023/10/05 00:16:23;;;;;;;15.48;3.15;;;14.90;99.90;;;;;;5011637;28;20091;-75
2023/10/05 00:18:50;;;;;;;18.05;3.55;;;15.00;99.90;;;;;;5011353;28;20057;-78
2023/10/05 00:21:19;;;;;;;11.82;3.45;;;14.90;99.90;;;;;;4997270;28;20500;-76
2023/10/05 00:23:50;;;;;;;17.15;3.03;;;14.90;99.90;;;;;;5010000;28;20045;-75
2023/10/05 00:26:20;;;;;;;12.50;2.63;;;14.90;99.90;;;;;;5009778;28;20041;-75
2023/10/05 00:28:55;;;;;;;15.15;3.00;;;14.90;99.90;;;;;;5012413;28;20069;-76
2023/10/05 00:31:24;;;;;;;13.55;3.08;;;14.90;99.90;;;;;;5008263;28;20116;-75
2023/10/05 00:33:55;;;;;;;15.07;3.20;;;14.90;99.90;;;;;;4995424;28;20444;-78
2023/10/05 00:36:24;;;;;;;18.75;3.63;;;14.90;99.90;;;;;;5009451;28;20041;-74
2023/10/05 00:38:50;;;;;;;12.95;2.50;;;14.90;99.90;;;;;;5004152;28;20034;-75
2023/10/05 00:41:16;;;;;;;17.95;3.28;;;14.80;99.90;;;;;;5006944;28;20073;-76
2023/10/05 00:43:46;;;;;;;11.48;2.65;;;14.80;99.90;;;;;;5010800;28;20492;-75
2023/10/05 00:46:12;;;;;;;15.70;3.72;;;14.80;99.90;;;;;;5002615;28;20476;-75
2023/10/05 00:48:48;;;;;;;13.88;2.90;;;14.80;99.90;;;;;;5033015;28;20504;-75
2023/10/05 00:51:23;;;;;;;15.27;2.70;;;14.80;99.90;;;;;;5026088;28;20061;-76
2023/10/05 00:53:50;;;;;;;15.15;2.92;;;14.80;99.90;;;;;;5044124;28;20045;-76
2023/10/05 00:56:16;;;;;;;15.30;3.38;;;14.80;99.90;;;;;;5047827;28;20124;-76
2023/10/05 00:58:44;;;;;;;13.25;2.75;;;14.80;99.90;;;;;;5028899;28;20057;-75
2023/10/05 01:01:25;;;;;;;17.48;3.63;;;14.80;99.90;;;;;;5042517;28;20045;-75
2023/10/05 01:06:54;;;;;;;12.65;3.63;;;14.80;99.90;;;;;;5049068;28;20041;-75
2023/10/05 01:14:45;;;;;;;12.63;3.30;;;14.80;99.90;;;;;;5033222;28;20057;-76
2023/10/05 01:17:11;;;;;;;11.50;3.08;;;14.80;99.90;;;;;;5028833;28;20049;-76
2023/10/05 01:19:39;;;;;;;12.18;2.40;;;14.70;99.90;;;;;;5053554;28;20628;-77
2023/10/05 01:22:14;;;;;;;16.38;2.97;;;14.80;99.90;;;;;;5035198;28;20407;-76
2023/10/05 01:24:41;;;;;;;10.98;2.67;;;14.70;99.90;;;;;;5056495;28;20511;-76
2023/10/05 01:27:08;;;;;;;13.57;3.25;;;14.80;99.90;;;;;;5036764;28;20066;-77
2023/10/05 01:29:34;;;;;;;13.07;2.80;;;14.80;99.90;;;;;;5013127;28;20041;-78
2023/10/05 01:31:59;;;;;;;13.43;3.10;;;14.80;99.90;;;;;;5011030;28;20037;-76
2023/10/05 01:34:25;;;;;;;14.27;2.95;;;14.90;99.90;;;;;;5035359;28;20287;-78
2023/10/05 01:36:53;;;;;;;14.48;3.00;;;14.80;99.90;;;;;;5030344;28;20041;-78
2023/10/05 01:39:21;;;;;;;12.40;3.33;;;14.90;99.90;;;;;;5042806;28;20133;-76
2023/10/05 01:41:48;;;;;;;17.77;2.95;;;14.90;99.90;;;;;;5029215;28;20072;-77
2023/10/05 01:44:14;;;;;;;17.23;3.00;;;14.90;99.90;;;;;;5045214;28;20578;-77
2023/10/05 01:46:40;;;;;;;9.65;3.42;;;14.90;99.90;;;;;;5012392;28;20338;-76
2023/10/05 01:49:06;;;;;;;15.30;3.58;;;14.90;99.90;;;;;;5030587;28;20082;-76
2023/10/05 01:51:32;;;;;;;10.38;3.50;;;14.90;99.90;;;;;;5007111;28;20120;-76
2023/10/05 01:54:11;;;;;;;12.07;3.50;;;14.90;99.90;;;;;;5029444;28;20052;-76
2023/10/05 01:56:39;;;;;;;11.50;3.05;;;14.80;99.90;;;;;;5045441;28;20048;-75
2023/10/05 01:59:06;;;;;;;16.65;3.38;;;14.80;99.90;;;;;;5047243;28;20063;-75
2023/10/05 02:01:37;;;;;;;16.30;4.13;;;14.80;99.90;;;;;;5046029;28;20049;-76
2023/10/05 02:04:04;;;;;;;12.25;3.03;;;14.80;99.90;;;;;;5021693;28;20044;-76
2023/10/05 02:06:39;;;;;;;13.57;3.42;;;14.80;99.90;;;;;;5005905;28;20037;-75
2023/10/05 02:09:05;;;;;;;22.50;4.28;;;14.80;99.90;;;;;;5013472;28;20041;-75
2023/10/05 02:11:33;;;;;;;19.08;4.45;;;14.80;99.90;;;;;;5030129;28;20041;-76
2023/10/05 02:14:03;;;;;;;17.80;4.10;;;14.80;99.90;;;;;;5026356;28;20044;-75
2023/10/05 02:16:30;;;;;;;16.63;4.03;;;14.80;99.90;;;;;;5010718;28;20041;-76
2023/10/05 02:18:56;;;;;;;19.52;3.67;;;14.80;99.90;;;;;;5046014;28;20044;-76
2023/10/05 02:21:36;;;;;;;16.80;3.15;;;14.70;99.90;;;;;;5046554;28;20063;-76
2023/10/05 02:24:25;;;;;;;14.82;3.45;;;14.70;99.90;;;;;;5028121;28;20045;-77
2023/10/05 02:27:32;;;;;;;14.10;3.25;;;14.70;99.90;;;;;;5025327;28;20037;-77
2023/10/05 02:29:40;;;;;;;12.52;3.30;;;14.70;99.90;;;;;;5019931;28;20049;-79
2023/10/05 02:32:10;;;;;;;11.90;3.40;;;14.70;99.90;;;;;;5030037;28;20535;-76
2023/10/05 02:34:47;;;;;;;15.07;3.75;;;14.70;99.90;;;;;;5026031;28;20049;-76
2023/10/05 02:37:13;;;;;;;19.38;3.63;;;14.80;99.90;;;;;;5025384;28;20064;-77
2023/10/05 02:39:40;;;;;;;15.07;2.85;;;14.80;99.90;;;;;;5033414;28;20076;-76
2023/10/05 02:42:11;;;;;;;18.05;3.67;;;14.70;99.90;;;;;;5049093;28;20069;-76
2023/10/05 02:44:38;;;;;;;15.25;3.30;;;14.70;99.90;;;;;;5042029;28;21576;-77
2023/10/05 02:47:12;;;;;;;12.98;3.28;;;14.70;99.90;;;;;;5024331;28;20128;-76
2023/10/05 02:49:43;;;;;;;25.13;4.63;;;14.60;99.90;;;;;;5027647;28;20055;-76
2023/10/05 02:52:13;;;;;;;17.60;3.85;;;14.60;99.90;;;;;;5031641;28;20048;-74
2023/10/05 02:54:57;;;;;;;14.40;3.92;;;14.60;99.90;;;;;;5057734;28;20048;-76
2023/10/05 02:57:22;;;;;;;19.30;4.10;;;14.60;99.90;;;;;;5034212;28;20423;-76
2023/10/05 02:59:50;;;;;;;15.15;3.67;;;14.50;99.90;;;;;;5051720;28;20588;-76
2023/10/05 03:02:16;;;;;;;14.50;3.58;;;14.50;99.90;;;;;;5025353;28;20045;-75
2023/10/05 03:04:47;;;;;;;20.23;5.13;;;14.50;99.90;;;;;;5049068;28;20064;-76
2023/10/05 03:07:18;;;;;;;19.90;3.40;;;14.50;99.90;;;;;;5014125;28;20055;-76
2023/10/05 03:09:47;;;;;;;14.60;4.43;;;14.50;99.90;;;;;;5052158;28;20044;-77
2023/10/05 03:12:14;;;;;;;17.67;4.13;;;14.50;99.90;;;;;;5032747;28;20033;-76
2023/10/05 03:14:43;;;;;;;17.85;3.80;;;14.50;99.90;;;;;;5033545;28;20041;-76
2023/10/05 03:17:13;;;;;;;17.40;3.50;;;14.50;99.90;;;;;;5022875;28;20041;-76
2023/10/05 03:19:39;;;;;;;16.98;3.25;;;14.50;99.90;;;;;;5051216;28;20041;-76
2023/10/05 03:22:08;;;;;;;19.55;3.58;;;14.50;99.90;;;;;;5053588;28;20043;-76
2023/10/05 03:24:36;;;;;;;13.30;3.25;;;14.50;99.90;;;;;;5028700;28;20112;-77
2023/10/05 03:27:08;;;;;;;19.08;3.85;;;14.50;99.90;;;;;;5050613;28;20050;-75
2023/10/05 03:29:35;;;;;;;16.23;4.10;;;14.50;99.90;;;;;;5033455;28;20573;-76
2023/10/05 03:34:34;;;;;;;12.60;3.70;;;14.50;99.90;;;;;;5032773;28;20089;-75
2023/10/05 03:37:04;;;;;;;17.33;3.50;;;14.50;99.90;;;;;;5036306;28;20041;-76
2023/10/05 03:39:33;;;;;;;19.05;3.78;;;14.50;99.90;;;;;;5054182;28;20049;-75
2023/10/05 03:41:59;;;;;;;19.60;3.97;;;14.50;99.90;;;;;;5030895;28;20044;-74
2023/10/05 03:44:26;;;;;;;20.98;4.30;;;14.50;99.90;;;;;;5050728;28;20033;-76
2023/10/05 03:46:52;;;;;;;20.83;3.72;;;14.50;99.90;;;;;;5045232;28;20052;-76
2023/10/05 03:49:21;;;;;;;18.70;3.80;;;14.60;99.90;;;;;;5032131;28;20052;-76
2023/10/05 03:51:50;;;;;;;17.20;4.10;;;14.60;99.90;;;;;;5021903;28;20057;-77
2023/10/05 03:54:20;;;;;;;13.77;3.45;;;14.70;99.90;;;;;;5005011;28;20123;-77
2023/10/05 03:56:50;;;;;;;16.77;3.30;;;14.70;99.90;;;;;;5023745;28;20094;-75
2023/10/05 03:59:16;;;;;;;15.75;4.05;;;14.70;99.90;;;;;;5030379;28;20238;-75
2023/10/05 04:01:42;;;;;;;14.98;4.47;;;14.70;99.90;;;;;;5029794;28;20583;-75
2023/10/05 04:04:08;;;;;;;19.63;3.45;;;14.70;99.90;;;;;;5048577;28;20033;-76
2023/10/05 04:06:38;;;;;;;20.42;4.28;;;14.80;99.90;;;;;;5035280;28;20098;-76
2023/10/05 04:09:04;;;;;;;14.18;3.60;;;14.70;99.90;;;;;;5045950;28;20099;-76
2023/10/05 04:11:33;;;;;;;13.82;3.40;;;14.80;99.90;;;;;;5046735;28;20072;-75
2023/10/05 04:14:01;;;;;;;18.15;3.80;;;14.70;99.90;;;;;;5047504;28;20037;-75
2023/10/05 04:16:28;;;;;;;13.52;3.53;;;14.70;99.90;;;;;;5024179;28;20069;-76
2023/10/05 04:19:04;;;;;;;16.90;3.95;;;14.70;99.90;;;;;;5015266;28;20511;-75
2023/10/05 04:21:30;;;;;;;17.45;3.70;;;14.70;99.90;;;;;;5029473;28;20435;-75
2023/10/05 04:23:59;;;;;;;20.88;3.83;;;14.70;99.90;;;;;;5020995;28;20256;-76
2023/10/05 04:26:37;;;;;;;17.85;4.03;;;14.70;99.90;;;;;;5029541;28;20037;-77
2023/10/05 04:29:04;;;;;;;16.77;5.45;;;14.70;99.90;;;;;;5032245;28;20693;-75
2023/10/05 04:31:31;;;;;;;19.30;3.72;;;14.70;99.90;;;;;;5029222;28;20041;-77
2023/10/05 04:33:57;;;;;;;17.35;3.42;;;14.60;99.90;;;;;;5024697;28;20406;-76
2023/10/05 04:36:24;;;;;;;18.95;3.88;;;14.60;99.90;;;;;;5027474;28;20041;-75
2023/10/05 04:38:54;;;;;;;19.15;4.53;;;14.60;99.90;;;;;;5042717;28;20066;-76
2023/10/05 04:41:34;;;;;;;25.30;4.57;;;14.70;99.90;;;;;;5025626;28;20040;-75
2023/10/05 04:44:00;;;;;;;21.17;3.83;;;14.60;99.90;;;;;;5023933;28;20057;-75
2023/10/05 04:46:28;;;;;;;17.00;3.22;;;14.70;99.90;;;;;;5024234;28;20116;-75
2023/10/05 04:49:12;;;;;;;17.30;3.97;;;14.60;99.90;;;;;;5030939;28;20162;-76
2023/10/05 04:51:44;;;;;;;16.35;4.13;;;14.70;99.90;;;;;;4986442;28;20038;-77
2023/10/05 04:54:11;;;;;;;20.52;3.67;;;14.70;99.90;;;;;;5002510;28;20041;-74
2023/10/05 04:56:53;;;;;;;21.00;3.97;;;14.70;99.90;;;;;;5008737;28;20099;-78
2023/10/05 04:59:25;;;;;;;26.52;4.63;;;14.60;99.90;;;;;;4995481;28;20382;-75
2023/10/05 05:04:41;;;;;;;19.27;4.15;;;14.60;99.90;;;;;;5022672;28;20502;-76
2023/10/05 05:07:10;;;;;;;20.45;4.20;;;14.60;99.90;;;;;;5026936;28;20041;-75
2023/10/05 05:09:43;;;;;;;16.30;3.85;;;14.60;99.90;;;;;;5020839;28;20086;-74
2023/10/05 05:12:16;;;;;;;16.67;3.90;;;14.50;99.90;;;;;;5022314;28;20045;-74
2023/10/05 05:14:44;;;;;;;19.70;4.78;;;14.50;99.90;;;;;;5022873;28;20593;-75
2023/10/05 05:17:13;;;;;;;16.52;4.05;;;14.50;99.90;;;;;;4992349;28;20060;-74
2023/10/05 05:19:39;;;;;;;19.90;3.67;;;14.50;99.90;;;;;;5015610;28;20069;-75
2023/10/05 05:22:06;;;;;;;14.25;3.92;;;14.50;99.90;;;;;;5029395;28;20360;-74
2023/10/05 05:24:36;;;;;;;16.33;3.75;;;14.60;99.90;;;;;;5006395;28;20034;-74
2023/10/05 05:29:44;;;;;;;17.20;4.22;;;14.50;99.90;;;;;;5008356;28;20053;-74
2023/10/05 05:32:10;;;;;;;20.33;3.70;;;14.50;99.90;;;;;;5006459;28;20158;-75
2023/10/05 05:34:42;;;;;;;19.73;4.97;;;14.60;99.90;;;;;;5006792;28;20033;-75
2023/10/05 05:37:13;;;;;;;12.00;3.58;;;14.50;99.90;;;;;;5012941;28;20481;-75
2023/10/05 05:39:39;;;;;;;20.23;3.58;;;14.50;99.90;;;;;;5011080;28;20505;-76
2023/10/05 05:42:13;;;;;;;16.40;4.75;;;14.50;99.90;;;;;;5011148;28;20405;-75
2023/10/05 05:44:40;;;;;;;20.27;4.03;;;14.60;99.90;;;;;;5026511;28;20128;-74
2023/10/05 05:47:14;;;;;;;20.80;4.32;;;14.60;99.90;;;;;;5012653;28;20048;-75
2023/10/05 05:49:46;;;;;;;19.02;4.65;;;14.60;99.90;;;;;;5005704;28;20037;-74
2023/10/05 05:52:13;;;;;;;17.50;3.53;;;14.70;99.90;;;;;;5003580;28;20056;-77
2023/10/05 05:54:41;;;;;;;20.67;4.45;;;14.60;99.90;;;;;;5009605;28;20064;-72
2023/10/05 05:57:07;;;;;;;20.27;4.57;;;14.60;99.90;;;;;;5030014;28;20055;-72
2023/10/05 05:59:38;;;;;;;15.85;3.75;;;14.60;99.90;;;;;;5007014;28;20041;-70
2023/10/05 06:02:07;;;;;;;18.42;3.97;;;14.70;99.90;;;;;;4988157;28;20045;-71
2023/10/05 06:04:36;;;;;;;14.02;3.53;;;14.70;99.90;;;;;;5006853;28;20041;-71
2023/10/05 06:07:11;;;;;;;17.95;4.25;;;14.70;99.90;;;;;;5008151;28;20049;-72
2023/10/05 06:09:39;;;;;;;20.52;4.93;;;14.70;99.90;;;;;;5028669;28;20033;-70
2023/10/05 06:12:05;;;;;;;21.02;4.57;;;14.70;99.90;;;;;;5006816;28;20039;-70
2023/10/05 06:14:34;;;;;;;18.30;4.00;;;14.70;99.90;;;;;;5013453;28;20103;-70
2023/10/05 06:17:00;;;;;;;25.20;3.97;;;14.80;99.90;;;;;;5005066;28;20068;-71
2023/10/05 06:19:28;;;;;;;18.27;3.67;;;14.80;99.90;;;;;;4990794;28;20049;-71
2023/10/05 06:21:54;;;;;;;19.35;4.32;;;14.80;99.90;;;;;;5005010;28;20041;-71
2023/10/05 06:24:20;;;;;;;20.33;4.85;;;14.90;99.90;;;;;;4994643;28;20037;-70
2023/10/05 06:26:46;;;;;;;20.75;4.30;;;14.90;99.90;;;;;;5011355;28;20722;-71
2023/10/05 06:29:13;;;;;;;17.98;4.35;;;14.90;99.90;;;;;;5008208;28;20136;-71
2023/10/05 06:31:40;;;;;;;16.25;4.45;;;14.90;99.90;;;;;;5010463;28;20532;-71
2023/10/05 06:34:10;;;;;;;18.80;3.88;;;14.90;99.90;;;;;;5033444;28;20045;-71
2023/10/05 06:36:39;;;;;;;16.20;3.55;;;14.90;99.90;;;;;;5022918;28;20401;-70
2023/10/05 06:39:14;;;;;;;20.27;4.13;;;15.00;99.90;;;;;;5006801;28;20041;-69
2023/10/05 06:41:43;;;;;;;18.08;4.30;;;15.00;99.90;;;;;;5013653;28;20037;-71
2023/10/05 06:44:10;;;;;;;20.15;4.63;;;14.90;99.90;;;;;;4991549;28;20060;-69
2023/10/05 06:46:37;;;;;;;18.02;4.07;;;15.00;99.90;;;;;;5012799;28;20041;-69
2023/10/05 06:49:05;;;;;;;20.85;4.15;;;15.00;99.90;;;;;;4991669;28;20034;-71
2023/10/05 06:51:31;;;;;;;18.85;4.28;;;14.90;99.90;;;;;;5006680;28;20106;-69
2023/10/05 06:53:57;;;;;;;22.17;4.35;;;15.00;99.90;;;;;;5008764;28;20049;-69
2023/10/05 06:56:24;;;;;;;21.67;4.30;;;15.00;99.90;;;;;;5024807;28;20049;-69
2023/10/05 06:58:50;;;;;;;19.33;4.18;;;15.10;99.90;;;;;;5027502;28;20045;-69
2023/10/05 07:01:20;;;;;;;13.45;3.70;;;15.00;99.90;;;;;;5007492;28;20045;-69
2023/10/05 07:03:52;;;;;;;16.95;4.05;;;15.00;99.90;;;;;;5008971;28;20090;-69
2023/10/05 07:06:24;;;;;;;17.70;3.67;;;15.10;99.90;;;;;;4991986;28;20053;-69
2023/10/05 07:08:52;;;;;;;23.13;4.10;;;15.10;99.90;;;;;;5005126;28;20045;-70
2023/10/05 07:11:21;;;;;;;21.70;4.53;;;15.10;99.90;;;;;;5006644;28;20045;-70
2023/10/05 07:13:47;;;;;;;22.70;4.95;;;15.10;99.90;;;;;;5027077;28;20041;-72
2023/10/05 07:16:13;;;;;;;18.00;3.97;;;15.10;99.90;;;;;;5026832;28;20072;-73
2023/10/05 07:18:39;;;;;;;22.77;4.40;;;15.10;99.90;;;;;;5014324;28;20046;-73
2023/10/05 07:21:08;;;;;;;23.10;3.95;;;15.10;99.90;;;;;;5003834;28;20373;-74
2023/10/05 07:23:37;;;;;;;19.60;5.20;;;15.10;99.90;;;;;;5027341;28;20512;-73
2023/10/05 07:26:07;;;;;;;18.75;3.58;;;15.10;99.90;;;;;;5028395;28;20060;-73
2023/10/05 07:28:37;;;;;;;17.40;3.97;;;15.10;99.90;;;;;;5011820;28;20047;-73
2023/10/05 07:31:05;;;;;;;14.38;4.38;;;15.10;99.90;;;;;;5027072;28;20129;-74
2023/10/05 07:33:35;;;;;;;19.92;4.20;;;15.10;99.90;;;;;;5011405;28;20103;-72
2023/10/05 07:36:02;;;;;;;20.70;4.55;;;15.10;99.90;;;;;;5013740;28;20335;-73
2023/10/05 07:38:28;;;;;;;18.17;3.90;;;15.00;99.90;;;;;;4996953;28;20073;-75
2023/10/05 07:40:55;;;;;;;14.55;4.47;;;14.90;99.90;;;;;;5014245;28;20083;-74
2023/10/05 07:43:20;;;;;;;22.52;5.45;;;15.00;99.90;;;;;;5013547;28;20045;-75
2023/10/05 07:45:46;;;;;;;19.52;4.75;;;14.90;99.90;;;;;;5012852;28;20055;-74
2023/10/05 07:48:12;;;;;;;14.25;3.55;;;15.00;99.90;;;;;;5012548;28;20148;-74
2023/10/05 07:50:38;;;;;;;15.32;3.80;;;14.90;99.90;;;;;;5013891;28;20034;-74
2023/10/05 07:53:04;;;;;;;14.20;3.42;;;14.90;99.90;;;;;;5009547;28;20084;-75
2023/10/05 07:55:31;;;;;;;13.13;3.58;;;14.90;99.90;;;;;;5012330;28;20048;-74
2023/10/05 07:57:56;;;;;;;15.80;3.63;;;14.90;99.90;;;;;;5012385;28;20044;-74
2023/10/05 08:00:22;;;;;;;13.68;3.75;;;14.90;99.90;;;;;;5013485;28;20033;-74
2023/10/05 08:02:48;;;;;;;12.35;3.65;;;14.90;99.90;;;;;;5013795;28;20488;-73
2023/10/05 08:05:14;;;;;;;17.20;4.55;;;14.90;99.90;;;;;;5010233;28;20575;-74
2023/10/05 08:07:41;;;;;;;16.30;4.22;;;15.00;99.90;;;;;;5012648;28;20038;-74
2023/10/05 08:10:15;;;;;;;19.70;4.25;;;15.00;99.90;;;;;;5010138;28;20133;-74
2023/10/05 08:12:43;;;;;;;14.38;3.60;;;15.00;99.90;;;;;;5023919;28;20037;-73
2023/10/05 08:15:12;;;;;;;23.48;5.03;;;15.00;99.90;;;;;;5009045;28;20405;-72
2023/10/05 08:17:39;;;;;;;16.63;4.13;;;15.00;99.90;;;;;;5010850;28;20076;-75
2023/10/05 08:20:06;;;;;;;18.73;3.92;;;15.10;99.90;;;;;;5007670;28;20041;-73
2023/10/05 08:22:32;;;;;;;19.98;5.28;;;15.10;99.90;;;;;;5012048;28;20037;-73
2023/10/05 08:25:00;;;;;;;14.57;4.50;;;15.10;99.90;;;;;;5012102;28;20034;-72
2023/10/05 08:27:26;;;;;;;21.65;4.90;;;15.10;99.90;;;;;;4996755;28;20090;-73
2023/10/05 08:29:52;;;;;;;21.63;5.38;;;15.10;99.90;;;;;;5009225;28;20120;-72
2023/10/05 08:32:24;;;;;;;19.92;4.75;;;15.10;99.90;;;;;;5010708;28;20377;-72
2023/10/05 08:34:50;;;;;;;23.08;5.35;;;15.00;99.90;;;;;;5014281;28;20087;-72
2023/10/05 08:37:19;;;;;;;14.57;4.40;;;15.00;99.90;;;;;;5011441;28;20065;-74
2023/10/05 08:39:46;;;;;;;16.08;3.78;;;14.90;99.90;;;;;;5010306;28;20091;-75
2023/10/05 08:42:14;;;;;;;18.08;3.95;;;15.00;99.90;;;;;;5002963;28;20052;-81
2023/10/05 08:44:42;;;;;;;13.18;3.97;;;15.10;99.90;;;;;;5015499;28;20094;-75
2023/10/05 08:49:51;;;;;;;16.65;4.20;;;15.10;99.90;;;;;;5111565;27;20391;-74
2023/10/05 08:52:20;;;;;;;14.70;3.25;;;15.10;99.90;;;;;;5066770;28;20042;-70
2023/10/05 08:54:46;;;;;;;14.05;3.90;;;15.10;99.90;;;;;;5083339;28;20036;-74
2023/10/05 08:57:13;;;;;;;15.75;4.70;;;15.20;99.90;;;;;;5066079;28;20082;-74
2023/10/05 08:59:45;;;;;;;17.85;4.55;;;15.20;99.90;;;;;;5084014;28;20128;-74
2023/10/05 09:02:18;;;;;;;20.25;4.47;;;15.30;99.90;;;;;;5083925;28;20388;-74
2023/10/05 09:04:59;;;;;;;19.77;5.13;;;15.30;99.90;;;;;;5087025;28;20044;-73
2023/10/05 09:07:37;;;;;;;21.70;5.32;;;15.30;99.90;;;;;;5087229;28;20352;-74
2023/10/05 09:10:05;;;;;;;20.20;4.88;;;15.30;99.90;;;;;;5087473;28;20550;-76
2023/10/05 09:12:34;;;;;;;21.35;5.03;;;15.20;99.90;;;;;;5090186;28;20123;-75
2023/10/05 09:15:29;;;;;;;22.65;4.72;;;15.30;99.90;;;;;;5086430;28;20036;-77
2023/10/05 09:18:00;;;;;;;24.15;5.60;;;15.20;99.90;;;;;;5085398;28;20037;-77
2023/10/05 09:20:31;;;;;;;25.35;5.97;;;15.30;99.90;;;;;;5082424;28;20052;-75
2023/10/05 09:23:00;;;;;;;18.65;5.00;;;15.40;99.90;;;;;;5065962;28;20045;-75
2023/10/05 09:25:45;;;;;;;17.13;4.43;;;15.50;99.90;;;;;;5083424;28;20558;-75
2023/10/05 09:28:28;;;;;;;16.10;4.07;;;15.70;99.90;;;;;;5059207;28;20071;-74
2023/10/05 09:30:59;;;;;;;18.13;4.57;;;15.70;99.90;;;;;;5063332;28;20047;-73
2023/10/05 09:33:34;;;;;;;27.02;4.80;;;15.70;99.90;;;;;;5060423;28;20571;-74
2023/10/05 09:36:16;;;;;;;14.88;4.00;;;15.80;99.90;;;;;;5060769;28;20041;-73
2023/10/05 09:38:46;;;;;;;18.23;4.10;;;15.80;99.90;;;;;;5047505;28;20044;-73
2023/10/05 09:41:15;;;;;;;18.05;4.07;;;15.80;99.90;;;;;;5063075;28;20327;-74
2023/10/05 09:43:44;;;;;;;18.15;4.15;;;15.80;99.90;;;;;;5064017;28;20090;-74
2023/10/05 09:46:11;;;;;;;16.23;3.95;;;15.80;99.90;;;;;;5062721;28;20041;-75
2023/10/05 09:48:40;;;;;;;11.98;3.65;;;15.80;99.90;;;;;;5060314;28;20064;-73
2023/10/05 09:51:11;;;;;;;16.45;4.13;;;15.90;99.90;;;;;;5059495;28;20093;-73
2023/10/05 09:53:44;;;;;;;13.90;4.18;;;15.90;99.90;;;;;;5060516;28;20063;-74
2023/10/05 09:56:12;;;;;;;16.63;4.68;;;15.80;99.90;;;;;;5062202;28;20040;-74
2023/10/05 09:58:42;;;;;;;22.52;4.72;;;15.90;99.90;;;;;;5058803;28;20090;-74
2023/10/05 10:01:10;;;;;;;14.52;4.18;;;15.80;99.90;;;;;;5047966;28;20041;-73
2023/10/05 10:03:39;;;;;;;15.13;3.70;;;15.90;99.90;;;;;;5049897;28;20041;-74
2023/10/05 10:06:09;;;;;;;19.45;4.13;;;15.90;99.90;;;;;;5032380;28;20449;-73
2023/10/05 10:08:54;;;;;;;14.48;4.05;;;15.90;99.90;;;;;;5046167;28;20075;-73
2023/10/05 10:11:24;;;;;;;12.82;3.67;;;16.10;99.90;;;;;;5062289;28;20734;-73
2023/10/05 10:14:01;;;;;;;18.00;4.30;;;16.20;99.90;;;;;;5048497;28;20037;-73
2023/10/05 10:16:27;;;;;;;16.88;3.92;;;16.30;99.90;;;;;;5049401;28;20056;-73
2023/10/05 10:19:22;;;;;;;16.48;4.25;;;16.40;99.90;;;;;;5046077;28;20052;-73
2023/10/05 10:21:57;;;;;;;25.00;5.00;;;16.50;99.90;;;;;;5050693;28;20065;-74
2023/10/05 10:24:28;;;;;;;20.90;4.65;;;16.60;99.90;;;;;;5044270;28;20045;-73
2023/10/05 10:27:07;;;;;;;14.32;3.42;;;16.70;99.90;;;;;;5046897;28;20101;-74
2023/10/05 10:29:49;;;;;;;21.83;4.22;;;16.70;99.90;;;;;;5049515;28;20041;-74
2023/10/05 10:32:21;;;;;;;23.20;4.20;;;16.70;99.90;;;;;;5050402;28;20053;-74
2023/10/05 10:34:50;;;;;;;16.35;4.65;;;16.60;99.90;;;;;;5048191;28;20041;-74
2023/10/05 10:37:42;;;;;;;21.58;4.82;;;16.70;99.90;;;;;;5050092;28;20045;-73
2023/10/05 10:40:25;;;;;;;14.40;3.72;;;16.70;99.90;;;;;;5046454;28;20067;-74
2023/10/05 10:43:06;;;;;;;16.05;3.38;;;16.90;99.90;;;;;;5048596;28;20044;-73
2023/10/05 10:45:44;;;;;;;21.08;4.57;;;17.00;99.90;;;;;;5046472;28;20047;-74
2023/10/05 10:48:20;;;;;;;11.73;3.03;;;17.20;99.90;;;;;;5050424;28;20046;-74
2023/10/05 10:50:47;;;;;;;17.60;3.92;;;17.20;99.90;;;;;;5049821;28;20502;-74
2023/10/05 10:53:17;;;;;;;14.77;3.50;;;17.20;99.90;;;;;;5047326;28;20056;-74
2023/10/05 10:55:51;;;;;;;13.95;3.83;;;17.30;99.90;;;;;;5047937;28;20052;-74
2023/10/05 10:58:30;;;;;;;16.40;3.75;;;17.30;99.90;;;;;;5031788;28;20487;-74
2023/10/05 11:00:59;;;;;;;17.02;3.92;;;17.20;99.90;;;;;;5047833;28;20048;-74
2023/10/05 11:03:30;;;;;;;19.52;3.65;;;17.10;99.90;;;;;;5033318;28;20041;-73
2023/10/05 11:05:58;;;;;;;15.43;3.67;;;17.10;99.90;;;;;;5032949;28;20186;-74
2023/10/05 11:08:30;;;;;;;17.15;3.88;;;17.00;99.90;;;;;;5047080;28;20158;-74
2023/10/05 11:11:19;;;;;;;14.80;3.92;;;17.00;99.90;;;;;;5042761;28;20481;-74
2023/10/05 11:13:49;;;;;;;16.65;4.30;;;17.00;99.90;;;;;;5047530;28;20099;-74
2023/10/05 11:16:15;;;;;;;17.52;3.83;;;16.90;99.90;;;;;;5045381;28;20056;-73
2023/10/05 11:19:00;;;;;;;18.13;3.63;;;16.90;99.90;;;;;;5048108;28;20496;-74
2023/10/05 11:21:26;;;;;;;22.05;5.32;;;17.00;99.90;;;;;;5047192;28;20106;-74
2023/10/05 11:23:57;;;;;;;19.88;4.32;;;16.90;99.90;;;;;;5044903;28;20060;-73
2023/10/05 11:26:33;;;;;;;17.58;3.75;;;16.80;99.90;;;;;;5049370;28;20329;-74
2023/10/05 11:29:15;;;;;;;21.30;4.15;;;16.80;99.90;;;;;;5048336;28;20037;-74
2023/10/05 11:31:41;;;;;;;20.67;4.00;;;16.90;99.90;;;;;;5045625;28;20119;-75
2023/10/05 11:34:11;;;;;;;17.55;3.42;;;16.90;99.90;;;;;;5048526;28;20052;-73
2023/10/05 11:36:42;;;;;;;16.92;3.55;;;17.00;99.90;;;;;;5045662;28;20048;-74
2023/10/05 11:39:26;;;;;;;17.13;3.97;;;17.00;99.90;;;;;;5030076;28;20044;-73
2023/10/05 11:41:55;;;;;;;15.95;3.42;;;17.00;99.90;;;;;;5046683;28;20118;-75
2023/10/05 11:44:23;;;;;;;17.70;4.45;;;17.10;99.90;;;;;;5043878;28;20040;-75
2023/10/05 11:46:53;;;;;;;15.93;3.83;;;17.10;99.90;;;;;;5047285;28;20189;-75
2023/10/05 11:49:20;;;;;;;16.02;4.07;;;17.30;99.90;;;;;;5045492;28;20052;-75
2023/10/05 11:51:56;;;;;;;15.55;3.72;;;17.40;99.90;;;;;;5048497;28;20086;-78
2023/10/05 11:54:29;;;;;;;15.30;2.88;;;17.50;99.90;;;;;;5031547;28;20040;-77
2023/10/05 11:56:56;;;;;;;16.20;3.13;;;17.60;99.90;;;;;;5046525;28;20172;-77
2023/10/05 11:59:35;;;;;;;14.75;3.33;;;17.50;99.90;;;;;;5046291;28;20040;-76
2023/10/05 12:02:01;;;;;;;9.23;2.85;;;17.50;99.90;;;;;;5048184;28;20047;-77
2023/10/05 12:04:27;;;;;;;16.40;3.05;;;17.50;99.90;;;;;;5047929;28;20049;-77
2023/10/05 12:06:58;;;;;;;15.48;2.97;;;17.50;99.90;;;;;;5046898;28;20037;-76
2023/10/05 12:09:42;;;;;;;19.88;3.05;;;17.60;99.90;;;;;;5043521;28;20048;-77
2023/10/05 12:12:13;;;;;;;14.82;3.47;;;17.60;99.90;;;;;;5047713;28;20431;-76
2023/10/05 12:14:41;;;;;;;13.90;3.40;;;17.60;99.90;;;;;;5045798;28;20136;-79
2023/10/05 12:17:07;;;;;;;14.75;3.42;;;17.60;99.90;;;;;;5034219;28;20386;-77
2023/10/05 12:19:33;;;;;;;16.50;3.10;;;17.60;99.90;;;;;;5046091;28;20056;-77
2023/10/05 12:22:03;;;;;;;16.60;3.63;;;17.60;99.90;;;;;;5048631;28;20087;-79
2023/10/05 12:24:33;;;;;;;11.43;2.88;;;17.70;99.90;;;;;;5045827;28;20483;-77
2023/10/05 12:26:59;;;;;;;17.42;3.83;;;17.70;99.90;;;;;;5046482;28;20047;-77
2023/10/05 12:29:26;;;;;;;11.38;2.90;;;17.80;99.90;;;;;;5046479;28;20127;-77
2023/10/05 12:31:51;;;;;;;13.98;3.38;;;17.90;99.90;;;;;;5033450;28;20176;-77
2023/10/05 12:34:23;;;;;;;20.85;3.55;;;17.80;99.90;;;;;;5029195;28;20460;-77
2023/10/05 12:36:49;;;;;;;15.00;3.20;;;17.80;99.90;;;;;;5046908;28;20055;-77
2023/10/05 12:39:27;;;;;;;14.65;3.10;;;17.90;99.90;;;;;;5049269;28;20116;-77
2023/10/05 12:41:54;;;;;;;12.20;2.95;;;17.80;99.90;;;;;;5046506;28;20080;-77
2023/10/05 12:44:21;;;;;;;14.57;3.45;;;17.90;99.90;;;;;;5046480;28;20053;-77
2023/10/05 12:46:47;;;;;;;13.32;2.70;;;18.00;99.90;;;;;;5045058;28;20058;-77
2023/10/05 12:49:14;;;;;;;17.80;3.00;;;18.00;99.90;;;;;;5045525;28;20057;-77
2023/10/05 12:51:42;;;;;;;8.68;3.00;;;18.10;99.90;;;;;;5048914;28;20057;-77
2023/10/05 12:54:29;;;;;;;9.70;2.55;;;18.10;99.90;;;;;;5044963;28;20037;-75
2023/10/05 12:56:55;;;;;;;10.32;2.67;;;18.20;99.90;;;;;;5044580;28;20044;-76
2023/10/05 12:59:21;;;;;;;13.10;2.40;;;18.30;99.90;;;;;;5047854;28;20094;-77
2023/10/05 13:01:47;;;;;;;15.48;3.33;;;18.30;99.90;;;;;;5046285;28;20115;-77
2023/10/05 13:04:15;;;;;;;12.60;3.05;;;18.20;99.90;;;;;;5046109;28;20037;-79
2023/10/05 13:06:41;;;;;;;14.40;3.53;;;18.20;99.90;;;;;;5047833;28;20045;-80
2023/10/05 13:09:18;;;;;;;16.80;3.67;;;18.20;99.90;;;;;;5046056;28;20043;-79
2023/10/05 13:11:45;;;;;;;11.32;3.15;;;18.20;99.90;;;;;;5042107;28;20398;-79